sensor_id;sensor_type;location;lat;lon;timestamp;pressure;altitude;pressure_sealevel;temperature;humidity
7052;BME280;3567;52.444;13.556;2023-12-22T00:01:06;98111.09;;;4.83;95.35
7052;BME280;3567;52.444;13.556;2023-12-22T00:03:31;98124.84;;;4.75;94.52
7052;BME280;3567;52.444;13.556;2023-12-22T00:05:57;98106.25;;;4.69;94.49
7052;BME280;3567;52.444;13.556;2023-12-22T00:08:22;98116.25;;;4.62;93.39
7052;BME280;3567;52.444;13.556;2023-12-22T00:10:49;98140.03;;;4.52;93.29
7052;BME280;3567;52.444;13.556;2023-12-22T00:13:14;98108.75;;;4.49;93.99
7052;BME280;3567;52.444;13.556;2023-12-22T00:15:40;98123.50;;;4.40;93.97
7052;BME280;3567;52.444;13.556;2023-12-22T00:18:05;98117.38;;;4.34;94.02
7052;BME280;3567;52.444;13.556;2023-12-22T00:20:31;98124.22;;;4.30;95.17
7052;BME280;3567;52.444;13.556;2023-12-22T00:22:56;98134.75;;;4.25;94.40
7052;BME280;3567;52.444;13.556;2023-12-22T00:25:22;98152.78;;;4.23;91.99
7052;BME280;3567;52.444;13.556;2023-12-22T00:27:47;98132.91;;;4.26;92.65
7052;BME280;3567;52.444;13.556;2023-12-22T00:30:12;98151.41;;;4.20;92.49
7052;BME280;3567;52.444;13.556;2023-12-22T00:32:38;98133.91;;;4.19;91.58
7052;BME280;3567;52.444;13.556;2023-12-22T00:35:03;98146.13;;;4.20;91.60
7052;BME280;3567;52.444;13.556;2023-12-22T00:37:29;98143.22;;;4.22;90.91
7052;BME280;3567;52.444;13.556;2023-12-22T00:39:55;98156.00;;;4.30;88.04
7052;BME280;3567;52.444;13.556;2023-12-22T00:42:20;98166.44;;;4.37;88.39
7052;BME280;3567;52.444;13.556;2023-12-22T00:44:46;98171.75;;;4.42;88.40
7052;BME280;3567;52.444;13.556;2023-12-22T00:47:11;98171.25;;;4.45;87.87
7052;BME280;3567;52.444;13.556;2023-12-22T00:49:37;98166.50;;;4.47;87.51
7052;BME280;3567;52.444;13.556;2023-12-22T00:52:03;98158.38;;;4.54;87.51
7052;BME280;3567;52.444;13.556;2023-12-22T00:54:28;98166.59;;;4.57;88.11
7052;BME280;3567;52.444;13.556;2023-12-22T00:56:57;98161.84;;;4.59;87.84
7052;BME280;3567;52.444;13.556;2023-12-22T00:59:22;98172.19;;;4.61;88.05
7052;BME280;3567;52.444;13.556;2023-12-22T01:01:48;98185.72;;;4.59;88.94
7052;BME280;3567;52.444;13.556;2023-12-22T01:04:13;98204.22;;;4.54;89.38
7052;BME280;3567;52.444;13.556;2023-12-22T01:06:39;98200.47;;;4.50;89.45
7052;BME280;3567;52.444;13.556;2023-12-22T01:09:04;98199.88;;;4.43;91.62
7052;BME280;3567;52.444;13.556;2023-12-22T01:11:30;98210.50;;;4.43;91.93
7052;BME280;3567;52.444;13.556;2023-12-22T01:13:55;98219.44;;;4.37;93.02
7052;BME280;3567;52.444;13.556;2023-12-22T01:16:21;98213.53;;;4.30;92.88
7052;BME280;3567;52.444;13.556;2023-12-22T01:18:48;98217.72;;;4.26;94.46
7052;BME280;3567;52.444;13.556;2023-12-22T01:21:13;98230.09;;;4.20;94.45
7052;BME280;3567;52.444;13.556;2023-12-22T01:23:39;98217.91;;;4.19;95.32
7052;BME280;3567;52.444;13.556;2023-12-22T01:26:04;98233.00;;;4.18;94.99
7052;BME280;3567;52.444;13.556;2023-12-22T01:28:29;98224.56;;;4.22;94.82
7052;BME280;3567;52.444;13.556;2023-12-22T01:30:55;98234.91;;;4.23;95.16
7052;BME280;3567;52.444;13.556;2023-12-22T01:33:20;98255.84;;;4.25;96.23
7052;BME280;3567;52.444;13.556;2023-12-22T01:35:45;98231.22;;;4.24;94.99
7052;BME280;3567;52.444;13.556;2023-12-22T01:38:11;98235.72;;;4.24;96.19
7052;BME280;3567;52.444;13.556;2023-12-22T01:40:36;98235.97;;;4.22;96.05
7052;BME280;3567;52.444;13.556;2023-12-22T01:43:02;98230.41;;;4.24;96.30
7052;BME280;3567;52.444;13.556;2023-12-22T01:45:27;98248.97;;;4.24;96.12
7052;BME280;3567;52.444;13.556;2023-12-22T01:47:52;98238.84;;;4.20;96.51
7052;BME280;3567;52.444;13.556;2023-12-22T01:50:20;98249.22;;;4.22;97.03
7052;BME280;3567;52.444;13.556;2023-12-22T01:52:45;98260.63;;;4.23;95.74
7052;BME280;3567;52.444;13.556;2023-12-22T01:55:12;98269.38;;;4.23;96.37
7052;BME280;3567;52.444;13.556;2023-12-22T01:57:39;98273.28;;;4.20;96.02
7052;BME280;3567;52.444;13.556;2023-12-22T02:00:07;98265.28;;;4.15;96.88
7052;BME280;3567;52.444;13.556;2023-12-22T02:02:33;98260.00;;;4.15;97.75
7052;BME280;3567;52.444;13.556;2023-12-22T02:04:59;98267.41;;;4.13;97.89
7052;BME280;3567;52.444;13.556;2023-12-22T02:07:24;98276.41;;;4.12;98.21
7052;BME280;3567;52.444;13.556;2023-12-22T02:09:50;98269.72;;;4.10;97.62
7052;BME280;3567;52.444;13.556;2023-12-22T02:12:15;98268.94;;;4.09;97.47
7052;BME280;3567;52.444;13.556;2023-12-22T02:14:41;98265.19;;;4.05;97.28
7052;BME280;3567;52.444;13.556;2023-12-22T02:17:31;98277.94;;;4.08;97.95
7052;BME280;3567;52.444;13.556;2023-12-22T02:19:58;98261.56;;;4.11;98.21
7052;BME280;3567;52.444;13.556;2023-12-22T02:22:23;98283.28;;;4.13;97.25
7052;BME280;3567;52.444;13.556;2023-12-22T02:24:49;98260.00;;;4.15;97.67
7052;BME280;3567;52.444;13.556;2023-12-22T02:29:52;98270.66;;;4.20;97.56
7052;BME280;3567;52.444;13.556;2023-12-22T02:32:30;98283.09;;;4.20;97.88
7052;BME280;3567;52.444;13.556;2023-12-22T02:34:56;98280.16;;;4.16;97.53
7052;BME280;3567;52.444;13.556;2023-12-22T02:37:23;98292.28;;;4.12;97.86
7052;BME280;3567;52.444;13.556;2023-12-22T02:39:51;98283.81;;;4.10;97.90
7052;BME280;3567;52.444;13.556;2023-12-22T02:42:18;98281.88;;;4.06;98.02
7052;BME280;3567;52.444;13.556;2023-12-22T02:44:45;98290.63;;;4.06;97.67
7052;BME280;3567;52.444;13.556;2023-12-22T02:47:10;98283.97;;;4.04;98.34
7052;BME280;3567;52.444;13.556;2023-12-22T02:49:36;98280.25;;;4.05;99.23
7052;BME280;3567;52.444;13.556;2023-12-22T02:52:05;98292.47;;;4.06;99.25
7052;BME280;3567;52.444;13.556;2023-12-22T02:54:30;98288.22;;;4.05;97.80
7052;BME280;3567;52.444;13.556;2023-12-22T02:56:57;98285.56;;;4.05;97.70
7052;BME280;3567;52.444;13.556;2023-12-22T02:59:24;98271.44;;;3.99;99.11
7052;BME280;3567;52.444;13.556;2023-12-22T03:01:50;98276.47;;;3.96;98.63
7052;BME280;3567;52.444;13.556;2023-12-22T03:04:16;98276.13;;;3.92;98.34
7052;BME280;3567;52.444;13.556;2023-12-22T03:06:43;98272.38;;;3.88;98.79
7052;BME280;3567;52.444;13.556;2023-12-22T03:09:08;98273.16;;;3.88;98.57
7052;BME280;3567;52.444;13.556;2023-12-22T03:11:34;98281.97;;;3.94;99.12
7052;BME280;3567;52.444;13.556;2023-12-22T03:14:02;98279.09;;;3.96;99.09
7052;BME280;3567;52.444;13.556;2023-12-22T03:16:27;98284.16;;;3.97;98.23
7052;BME280;3567;52.444;13.556;2023-12-22T03:18:53;98277.25;;;3.96;98.04
7052;BME280;3567;52.444;13.556;2023-12-22T03:21:18;98265.28;;;3.93;98.25
7052;BME280;3567;52.444;13.556;2023-12-22T03:23:44;98288.84;;;3.90;97.56
7052;BME280;3567;52.444;13.556;2023-12-22T03:26:10;98301.50;;;3.88;99.01
7052;BME280;3567;52.444;13.556;2023-12-22T03:28:35;98284.00;;;3.87;98.03
7052;BME280;3567;52.444;13.556;2023-12-22T03:31:04;98273.94;;;3.84;99.17
7052;BME280;3567;52.444;13.556;2023-12-22T03:33:33;98282.34;;;3.81;99.29
7052;BME280;3567;52.444;13.556;2023-12-22T03:35:58;98271.94;;;3.74;99.67
7052;BME280;3567;52.444;13.556;2023-12-22T03:38:24;98258.38;;;3.71;100.00
7052;BME280;3567;52.444;13.556;2023-12-22T03:40:52;98270.50;;;3.66;99.84
7052;BME280;3567;52.444;13.556;2023-12-22T03:43:17;98264.66;;;3.64;100.00
7052;BME280;3567;52.444;13.556;2023-12-22T03:45:43;98261.22;;;3.64;100.00
7052;BME280;3567;52.444;13.556;2023-12-22T03:48:08;98263.06;;;3.63;100.00
7052;BME280;3567;52.444;13.556;2023-12-22T03:50:34;98248.22;;;3.62;100.00
7052;BME280;3567;52.444;13.556;2023-12-22T03:52:59;98271.78;;;3.64;100.00
7052;BME280;3567;52.444;13.556;2023-12-22T03:55:24;98287.69;;;3.64;100.00
7052;BME280;3567;52.444;13.556;2023-12-22T03:57:50;98269.47;;;3.67;100.00
7052;BME280;3567;52.444;13.556;2023-12-22T04:00:15;98278.75;;;3.70;100.00
7052;BME280;3567;52.444;13.556;2023-12-22T04:02:41;98268.97;;;3.71;100.00
7052;BME280;3567;52.444;13.556;2023-12-22T04:05:07;98286.53;;;3.77;100.00
7052;BME280;3567;52.444;13.556;2023-12-22T04:07:32;98282.81;;;3.78;100.00
7052;BME280;3567;52.444;13.556;2023-12-22T04:09:57;98272.81;;;3.80;100.00
7052;BME280;3567;52.444;13.556;2023-12-22T04:12:23;98282.34;;;3.81;100.00
7052;BME280;3567;52.444;13.556;2023-12-22T04:14:48;98286.03;;;3.80;100.00
7052;BME280;3567;52.444;13.556;2023-12-22T04:17:13;98292.69;;;3.82;100.00
7052;BME280;3567;52.444;13.556;2023-12-22T04:19:39;98287.16;;;3.84;100.00
7052;BME280;3567;52.444;13.556;2023-12-22T04:22:04;98293.47;;;3.83;100.00
7052;BME280;3567;52.444;13.556;2023-12-22T04:24:29;98294.00;;;3.80;100.00
7052;BME280;3567;52.444;13.556;2023-12-22T04:26:55;98278.50;;;3.72;100.00
7052;BME280;3567;52.444;13.556;2023-12-22T04:29:20;98290.66;;;3.67;100.00
7052;BME280;3567;52.444;13.556;2023-12-22T04:31:45;98296.09;;;3.61;100.00
7052;BME280;3567;52.444;13.556;2023-12-22T04:34:13;98297.06;;;3.55;100.00
7052;BME280;3567;52.444;13.556;2023-12-22T04:36:39;98290.50;;;3.40;100.00
7052;BME280;3567;52.444;13.556;2023-12-22T04:39:05;98287.47;;;3.32;100.00
7052;BME280;3567;52.444;13.556;2023-12-22T04:41:30;98272.78;;;3.24;100.00
7052;BME280;3567;52.444;13.556;2023-12-22T04:43:57;98281.94;;;3.17;100.00
7052;BME280;3567;52.444;13.556;2023-12-22T04:46:22;98290.34;;;3.13;100.00
7052;BME280;3567;52.444;13.556;2023-12-22T04:48:48;98290.84;;;3.10;100.00
7052;BME280;3567;52.444;13.556;2023-12-22T04:51:13;98277.38;;;3.12;100.00
7052;BME280;3567;52.444;13.556;2023-12-22T04:53:38;98254.94;;;3.14;100.00
7052;BME280;3567;52.444;13.556;2023-12-22T04:56:04;98258.69;;;3.19;100.00
7052;BME280;3567;52.444;13.556;2023-12-22T04:58:30;98279.38;;;3.22;100.00
7052;BME280;3567;52.444;13.556;2023-12-22T05:00:55;98278.81;;;3.20;100.00
7052;BME280;3567;52.444;13.556;2023-12-22T05:03:20;98280.88;;;3.18;100.00
7052;BME280;3567;52.444;13.556;2023-12-22T05:05:46;98293.88;;;3.19;100.00
7052;BME280;3567;52.444;13.556;2023-12-22T05:08:14;98305.28;;;3.20;100.00
7052;BME280;3567;52.444;13.556;2023-12-22T05:10:41;98303.47;;;3.08;100.00
7052;BME280;3567;52.444;13.556;2023-12-22T05:13:06;98304.66;;;2.84;100.00
7052;BME280;3567;52.444;13.556;2023-12-22T05:15:35;98315.56;;;2.59;100.00
7052;BME280;3567;52.444;13.556;2023-12-22T05:18:03;98303.00;;;2.38;100.00
7052;BME280;3567;52.444;13.556;2023-12-22T05:20:30;98288.81;;;2.27;100.00
7052;BME280;3567;52.444;13.556;2023-12-22T05:22:58;98281.81;;;2.21;100.00
7052;BME280;3567;52.444;13.556;2023-12-22T05:25:24;98274.03;;;2.14;100.00
7052;BME280;3567;52.444;13.556;2023-12-22T05:27:49;98269.47;;;2.09;100.00
7052;BME280;3567;52.444;13.556;2023-12-22T05:30:17;98268.56;;;2.04;100.00
7052;BME280;3567;52.444;13.556;2023-12-22T05:32:43;98270.41;;;2.03;100.00
7052;BME280;3567;52.444;13.556;2023-12-22T05:35:09;98257.19;;;2.03;100.00
7052;BME280;3567;52.444;13.556;2023-12-22T05:37:35;98265.13;;;2.03;100.00
7052;BME280;3567;52.444;13.556;2023-12-22T05:40:01;98273.72;;;1.99;100.00
7052;BME280;3567;52.444;13.556;2023-12-22T05:42:27;98288.88;;;2.03;100.00
7052;BME280;3567;52.444;13.556;2023-12-22T05:44:52;98287.25;;;2.02;100.00
7052;BME280;3567;52.444;13.556;2023-12-22T05:47:18;98294.72;;;2.05;100.00
7052;BME280;3567;52.444;13.556;2023-12-22T05:49:43;98282.56;;;2.04;100.00
7052;BME280;3567;52.444;13.556;2023-12-22T05:52:09;98274.03;;;2.02;100.00
7052;BME280;3567;52.444;13.556;2023-12-22T05:54:35;98277.28;;;2.04;100.00
7052;BME280;3567;52.444;13.556;2023-12-22T05:57:01;98290.94;;;2.01;100.00
7052;BME280;3567;52.444;13.556;2023-12-22T05:59:26;98274.03;;;2.02;100.00
7052;BME280;3567;52.444;13.556;2023-12-22T06:01:55;98285.75;;;2.06;100.00
7052;BME280;3567;52.444;13.556;2023-12-22T06:04:21;98288.75;;;2.10;100.00
7052;BME280;3567;52.444;13.556;2023-12-22T06:06:46;98263.69;;;2.13;100.00
7052;BME280;3567;52.444;13.556;2023-12-22T06:09:11;98268.97;;;2.13;100.00
7052;BME280;3567;52.444;13.556;2023-12-22T06:11:38;98280.13;;;2.15;100.00
7052;BME280;3567;52.444;13.556;2023-12-22T06:14:05;98285.97;;;2.17;100.00
7052;BME280;3567;52.444;13.556;2023-12-22T06:16:31;98293.03;;;2.28;100.00
7052;BME280;3567;52.444;13.556;2023-12-22T06:18:56;98299.94;;;2.29;100.00
7052;BME280;3567;52.444;13.556;2023-12-22T06:21:22;98311.63;;;2.33;100.00
7052;BME280;3567;52.444;13.556;2023-12-22T06:23:47;98309.47;;;2.30;100.00
7052;BME280;3567;52.444;13.556;2023-12-22T06:26:12;98305.78;;;2.31;100.00
7052;BME280;3567;52.444;13.556;2023-12-22T06:28:38;98285.91;;;2.28;100.00
7052;BME280;3567;52.444;13.556;2023-12-22T06:31:06;98281.81;;;2.21;100.00
7052;BME280;3567;52.444;13.556;2023-12-22T06:33:34;98281.13;;;2.25;100.00
7052;BME280;3567;52.444;13.556;2023-12-22T06:36:00;98286.97;;;2.27;100.00
7052;BME280;3567;52.444;13.556;2023-12-22T06:38:25;98293.84;;;2.28;100.00
7052;BME280;3567;52.444;13.556;2023-12-22T06:40:50;98291.44;;;2.27;100.00
7052;BME280;3567;52.444;13.556;2023-12-22T06:43:16;98305.22;;;2.29;100.00
7052;BME280;3567;52.444;13.556;2023-12-22T06:45:41;98305.09;;;2.35;100.00
7052;BME280;3567;52.444;13.556;2023-12-22T06:48:07;98311.75;;;2.38;100.00
7052;BME280;3567;52.444;13.556;2023-12-22T06:50:34;98310.13;;;2.37;100.00
7052;BME280;3567;52.444;13.556;2023-12-22T06:53:02;98329.69;;;2.36;100.00
7052;BME280;3567;52.444;13.556;2023-12-22T06:55:27;98319.16;;;2.24;100.00
7052;BME280;3567;52.444;13.556;2023-12-22T06:57:53;98330.63;;;2.18;100.00
7052;BME280;3567;52.444;13.556;2023-12-22T07:00:19;98321.22;;;2.10;100.00
7052;BME280;3567;52.444;13.556;2023-12-22T07:02:47;98317.13;;;2.03;100.00
7052;BME280;3567;52.444;13.556;2023-12-22T07:07:47;98316.28;;;2.02;100.00
7052;BME280;3567;52.444;13.556;2023-12-22T07:10:12;98319.75;;;2.03;100.00
7052;BME280;3567;52.444;13.556;2023-12-22T07:12:38;98329.59;;;2.07;100.00
7052;BME280;3567;52.444;13.556;2023-12-22T07:15:05;98349.72;;;2.08;100.00
7052;BME280;3567;52.444;13.556;2023-12-22T07:17:32;98354.53;;;2.12;100.00
7052;BME280;3567;52.444;13.556;2023-12-22T07:20:00;98382.31;;;2.14;100.00
7052;BME280;3567;52.444;13.556;2023-12-22T07:22:28;98375.44;;;2.13;100.00
7052;BME280;3567;52.444;13.556;2023-12-22T07:24:53;98378.63;;;2.15;100.00
7052;BME280;3567;52.444;13.556;2023-12-22T07:27:20;98414.81;;;2.15;100.00
7052;BME280;3567;52.444;13.556;2023-12-22T07:29:49;98412.06;;;2.09;100.00
7052;BME280;3567;52.444;13.556;2023-12-22T07:32:14;98384.03;;;2.08;100.00
7052;BME280;3567;52.444;13.556;2023-12-22T07:34:40;98368.66;;;2.05;100.00
7052;BME280;3567;52.444;13.556;2023-12-22T07:37:05;98363.81;;;2.02;100.00
7052;BME280;3567;52.444;13.556;2023-12-22T07:39:31;98372.56;;;2.03;100.00
7052;BME280;3567;52.444;13.556;2023-12-22T07:41:56;98377.38;;;2.06;100.00
7052;BME280;3567;52.444;13.556;2023-12-22T07:44:21;98384.84;;;2.09;100.00
7052;BME280;3567;52.444;13.556;2023-12-22T07:46:58;98369.22;;;2.19;100.00
7052;BME280;3567;52.444;13.556;2023-12-22T07:49:24;98366.09;;;2.22;100.00
7052;BME280;3567;52.444;13.556;2023-12-22T07:51:51;98371.25;;;2.29;100.00
7052;BME280;3567;52.444;13.556;2023-12-22T07:54:17;98373.44;;;2.32;100.00
7052;BME280;3567;52.444;13.556;2023-12-22T07:56:42;98389.75;;;2.41;100.00
7052;BME280;3567;52.444;13.556;2023-12-22T07:59:08;98384.88;;;2.49;100.00
7052;BME280;3567;52.444;13.556;2023-12-22T08:01:33;98380.75;;;2.53;100.00
7052;BME280;3567;52.444;13.556;2023-12-22T08:03:58;98382.22;;;2.61;100.00
7052;BME280;3567;52.444;13.556;2023-12-22T08:06:24;98378.31;;;2.63;100.00
7052;BME280;3567;52.444;13.556;2023-12-22T08:08:49;98391.88;;;2.67;100.00
7052;BME280;3567;52.444;13.556;2023-12-22T08:11:14;98374.16;;;2.68;100.00
7052;BME280;3567;52.444;13.556;2023-12-22T08:13:40;98382.41;;;2.71;100.00
7052;BME280;3567;52.444;13.556;2023-12-22T08:16:05;98371.38;;;2.74;100.00
7052;BME280;3567;52.444;13.556;2023-12-22T08:18:31;98384.25;;;2.71;100.00
7052;BME280;3567;52.444;13.556;2023-12-22T08:20:56;98382.19;;;2.73;100.00
7052;BME280;3567;52.444;13.556;2023-12-22T08:23:21;98391.88;;;2.67;100.00
7052;BME280;3567;52.444;13.556;2023-12-22T08:25:47;98393.81;;;2.72;100.00
7052;BME280;3567;52.444;13.556;2023-12-22T08:28:13;98424.38;;;2.68;100.00
7052;BME280;3567;52.444;13.556;2023-12-22T08:30:38;98403.56;;;2.71;100.00
7052;BME280;3567;52.444;13.556;2023-12-22T08:33:04;98433.78;;;2.75;100.00
7052;BME280;3567;52.444;13.556;2023-12-22T08:35:29;98432.41;;;2.73;100.00
7052;BME280;3567;52.444;13.556;2023-12-22T08:37:55;98431.38;;;2.74;100.00
7052;BME280;3567;52.444;13.556;2023-12-22T08:40:21;98428.88;;;2.67;100.00
7052;BME280;3567;52.444;13.556;2023-12-22T08:42:52;98445.53;;;2.68;100.00
7052;BME280;3567;52.444;13.556;2023-12-22T08:45:20;98431.72;;;2.66;100.00
7052;BME280;3567;52.444;13.556;2023-12-22T08:47:46;98442.78;;;2.62;100.00
7052;BME280;3567;52.444;13.556;2023-12-22T08:50:11;98450.81;;;2.68;100.00
7052;BME280;3567;52.444;13.556;2023-12-22T08:52:38;98450.34;;;2.71;100.00
7052;BME280;3567;52.444;13.556;2023-12-22T08:55:03;98452.63;;;2.79;100.00
7052;BME280;3567;52.444;13.556;2023-12-22T08:57:30;98436.75;;;2.79;100.00
7052;BME280;3567;52.444;13.556;2023-12-22T08:59:57;98456.63;;;2.81;100.00
7052;BME280;3567;52.444;13.556;2023-12-22T09:02:22;98455.63;;;2.82;100.00
7052;BME280;3567;52.444;13.556;2023-12-22T09:04:47;98458.69;;;2.91;100.00
7052;BME280;3567;52.444;13.556;2023-12-22T09:07:13;98462.25;;;2.85;100.00
7052;BME280;3567;52.444;13.556;2023-12-22T09:09:38;98464.56;;;2.93;100.00
7052;BME280;3567;52.444;13.556;2023-12-22T09:12:05;98465.00;;;2.90;100.00
7052;BME280;3567;52.444;13.556;2023-12-22T09:14:30;98461.66;;;2.95;100.00
7052;BME280;3567;52.444;13.556;2023-12-22T09:16:56;98482.34;;;2.98;100.00
7052;BME280;3567;52.444;13.556;2023-12-22T09:19:21;98490.63;;;3.01;100.00
7052;BME280;3567;52.444;13.556;2023-12-22T09:21:47;98480.59;;;3.03;100.00
7052;BME280;3567;52.444;13.556;2023-12-22T09:24:12;98485.28;;;3.13;100.00
7052;BME280;3567;52.444;13.556;2023-12-22T09:26:37;98468.47;;;3.19;100.00
7052;BME280;3567;52.444;13.556;2023-12-22T09:29:03;98479.88;;;3.20;100.00
7052;BME280;3567;52.444;13.556;2023-12-22T09:31:28;98516.53;;;3.28;100.00
7052;BME280;3567;52.444;13.556;2023-12-22T09:33:53;98493.84;;;3.32;100.00
7052;BME280;3567;52.444;13.556;2023-12-22T09:36:19;98499.94;;;3.32;100.00
7052;BME280;3567;52.444;13.556;2023-12-22T09:38:44;98520.56;;;3.30;100.00
7052;BME280;3567;52.444;13.556;2023-12-22T09:41:09;98518.22;;;3.34;100.00
7052;BME280;3567;52.444;13.556;2023-12-22T09:43:35;98527.06;;;3.39;100.00
7052;BME280;3567;52.444;13.556;2023-12-22T09:46:04;98532.22;;;3.46;100.00
7052;BME280;3567;52.444;13.556;2023-12-22T09:48:32;98528.75;;;3.57;100.00
7052;BME280;3567;52.444;13.556;2023-12-22T09:50:59;98537.09;;;3.66;100.00
7052;BME280;3567;52.444;13.556;2023-12-22T09:53:26;98543.53;;;3.70;100.00
7052;BME280;3567;52.444;13.556;2023-12-22T09:55:53;98542.81;;;3.75;100.00
7052;BME280;3567;52.444;13.556;2023-12-22T09:58:19;98530.41;;;3.92;100.00
7052;BME280;3567;52.444;13.556;2023-12-22T10:00:45;98539.56;;;4.01;100.00
7052;BME280;3567;52.444;13.556;2023-12-22T10:03:11;98532.97;;;4.04;100.00
7052;BME280;3567;52.444;13.556;2023-12-22T10:05:38;98545.91;;;4.17;100.00
7052;BME280;3567;52.444;13.556;2023-12-22T10:08:04;98528.19;;;4.17;100.00
7052;BME280;3567;52.444;13.556;2023-12-22T10:10:32;98561.75;;;4.29;100.00
7052;BME280;3567;52.444;13.556;2023-12-22T10:12:58;98534.25;;;4.35;100.00
7052;BME280;3567;52.444;13.556;2023-12-22T10:15:24;98553.06;;;4.50;100.00
7052;BME280;3567;52.444;13.556;2023-12-22T10:17:51;98548.09;;;4.37;100.00
7052;BME280;3567;52.444;13.556;2023-12-22T10:20:17;98537.16;;;4.33;95.49
7052;BME280;3567;52.444;13.556;2023-12-22T10:22:42;98543.59;;;4.37;96.89
7052;BME280;3567;52.444;13.556;2023-12-22T10:25:08;98552.25;;;4.66;100.00
7052;BME280;3567;52.444;13.556;2023-12-22T10:27:35;98541.63;;;5.05;100.00
7052;BME280;3567;52.444;13.556;2023-12-22T10:30:01;98548.09;;;5.14;100.00
7052;BME280;3567;52.444;13.556;2023-12-22T10:32:26;98548.22;;;5.24;100.00
7052;BME280;3567;52.444;13.556;2023-12-22T10:34:52;98567.13;;;5.06;92.87
7052;BME280;3567;52.444;13.556;2023-12-22T10:37:18;98562.91;;;5.10;97.54
7052;BME280;3567;52.444;13.556;2023-12-22T10:39:44;98553.28;;;5.04;90.16
7052;BME280;3567;52.444;13.556;2023-12-22T10:42:13;98553.03;;;5.06;96.03
7052;BME280;3567;52.444;13.556;2023-12-22T10:44:40;98572.06;;;4.81;92.74
7052;BME280;3567;52.444;13.556;2023-12-22T10:47:05;98567.78;;;4.96;94.39
7052;BME280;3567;52.444;13.556;2023-12-22T10:49:31;98558.19;;;5.12;92.50
7052;BME280;3567;52.444;13.556;2023-12-22T10:51:57;98566.53;;;5.04;91.21
7052;BME280;3567;52.444;13.556;2023-12-22T10:54:22;98562.38;;;5.08;94.33
7052;BME280;3567;52.444;13.556;2023-12-22T10:56:48;98573.31;;;4.95;92.88
7052;BME280;3567;52.444;13.556;2023-12-22T10:59:18;98580.41;;;5.06;96.33
7052;BME280;3567;52.444;13.556;2023-12-22T11:01:44;98588.03;;;5.03;92.04
7052;BME280;3567;52.444;13.556;2023-12-22T11:04:13;98558.53;;;4.99;93.32
7052;BME280;3567;52.444;13.556;2023-12-22T11:06:42;98570.53;;;4.85;93.28
7052;BME280;3567;52.444;13.556;2023-12-22T11:09:10;98555.44;;;4.85;92.10
7052;BME280;3567;52.444;13.556;2023-12-22T11:11:39;98569.56;;;4.91;89.40
7052;BME280;3567;52.444;13.556;2023-12-22T11:14:06;98571.16;;;4.92;92.44
7052;BME280;3567;52.444;13.556;2023-12-22T11:16:34;98572.28;;;4.96;89.40
7052;BME280;3567;52.444;13.556;2023-12-22T11:19:01;98556.66;;;4.99;86.66
7052;BME280;3567;52.444;13.556;2023-12-22T11:21:27;98554.19;;;4.93;84.91
7052;BME280;3567;52.444;13.556;2023-12-22T11:23:54;98572.44;;;4.89;85.02
7052;BME280;3567;52.444;13.556;2023-12-22T11:26:21;98577.19;;;4.87;85.00
7052;BME280;3567;52.444;13.556;2023-12-22T11:28:48;98557.75;;;4.82;84.87
7052;BME280;3567;52.444;13.556;2023-12-22T11:31:14;98547.69;;;4.84;84.86
7052;BME280;3567;52.444;13.556;2023-12-22T11:33:44;98564.25;;;4.91;87.13
7052;BME280;3567;52.444;13.556;2023-12-22T11:36:11;98543.84;;;4.91;85.64
7052;BME280;3567;52.444;13.556;2023-12-22T11:38:36;98554.44;;;4.91;86.07
7052;BME280;3567;52.444;13.556;2023-12-22T11:41:03;98554.94;;;4.88;83.18
7052;BME280;3567;52.444;13.556;2023-12-22T11:43:31;98554.63;;;4.85;82.64
7052;BME280;3567;52.444;13.556;2023-12-22T11:46:04;98542.47;;;4.89;84.31
7052;BME280;3567;52.444;13.556;2023-12-22T11:48:30;98548.88;;;4.93;83.91
7052;BME280;3567;52.444;13.556;2023-12-22T11:50:55;98560.06;;;4.95;82.75
7052;BME280;3567;52.444;13.556;2023-12-22T11:53:22;98562.16;;;4.93;82.92
7052;BME280;3567;52.444;13.556;2023-12-22T11:56:04;98552.03;;;4.90;82.62
7052;BME280;3567;52.444;13.556;2023-12-22T12:01:05;98557.31;;;4.90;83.92
7052;BME280;3567;52.444;13.556;2023-12-22T12:03:31;98572.22;;;4.91;83.05
7052;BME280;3567;52.444;13.556;2023-12-22T12:08:35;98587.75;;;4.82;84.80
7052;BME280;3567;52.444;13.556;2023-12-22T12:11:00;98585.88;;;4.83;85.36
7052;BME280;3567;52.444;13.556;2023-12-22T12:13:28;98597.06;;;4.85;85.97
7052;BME280;3567;52.444;13.556;2023-12-22T12:15:56;98588.63;;;4.88;85.75
7052;BME280;3567;52.444;13.556;2023-12-22T12:18:27;98583.84;;;4.90;84.22
7052;BME280;3567;52.444;13.556;2023-12-22T12:20:52;98598.03;;;4.95;85.15
7052;BME280;3567;52.444;13.556;2023-12-22T12:23:19;98586.03;;;4.93;83.98
7052;BME280;3567;52.444;13.556;2023-12-22T12:25:44;98587.09;;;4.92;85.32
7052;BME280;3567;52.444;13.556;2023-12-22T12:28:10;98583.38;;;4.93;84.60
7052;BME280;3567;52.444;13.556;2023-12-22T12:30:37;98581.28;;;4.95;85.60
7052;BME280;3567;52.444;13.556;2023-12-22T12:33:10;98581.84;;;4.97;85.23
7052;BME280;3567;52.444;13.556;2023-12-22T12:35:37;98585.78;;;4.94;84.45
7052;BME280;3567;52.444;13.556;2023-12-22T12:38:03;98584.69;;;4.90;85.78
7052;BME280;3567;52.444;13.556;2023-12-22T12:40:29;98591.81;;;4.90;85.25
7052;BME280;3567;52.444;13.556;2023-12-22T12:42:56;98577.44;;;4.86;86.37
7052;BME280;3567;52.444;13.556;2023-12-22T12:45:25;98606.31;;;4.82;85.59
7052;BME280;3567;52.444;13.556;2023-12-22T12:48:01;98591.69;;;4.80;85.86
7052;BME280;3567;52.444;13.556;2023-12-22T12:50:27;98591.69;;;4.80;85.86
7052;BME280;3567;52.444;13.556;2023-12-22T12:53:00;98594.81;;;4.77;86.94
7052;BME280;3567;52.444;13.556;2023-12-22T12:55:26;98596.84;;;4.69;86.33
7052;BME280;3567;52.444;13.556;2023-12-22T12:57:52;98589.03;;;4.63;87.24
7052;BME280;3567;52.444;13.556;2023-12-22T13:00:24;98597.75;;;4.58;86.90
7052;BME280;3567;52.444;13.556;2023-12-22T13:02:50;98600.38;;;4.58;87.55
7052;BME280;3567;52.444;13.556;2023-12-22T13:05:23;98590.34;;;4.60;87.19
7052;BME280;3567;52.444;13.556;2023-12-22T13:07:48;98580.69;;;4.54;86.36
7052;BME280;3567;52.444;13.556;2023-12-22T13:10:23;98584.22;;;4.60;86.98
7052;BME280;3567;52.444;13.556;2023-12-22T13:12:52;98575.47;;;4.59;87.24
7052;BME280;3567;52.444;13.556;2023-12-22T13:15:20;98595.31;;;4.57;87.60
7052;BME280;3567;52.444;13.556;2023-12-22T13:17:46;98593.72;;;4.56;87.20
7052;BME280;3567;52.444;13.556;2023-12-22T13:20:12;98580.69;;;4.54;87.42
7052;BME280;3567;52.444;13.556;2023-12-22T13:22:37;98584.41;;;4.53;87.77